Dati Storici

Data ora Umidita' aria (%) Temperatura aria (°C) Rad globale (W/m²) Gonioanemometro (°) Tacoanemometro (m/s) Pioggia (mm)
10-11-2012 06:30 83.2 % 8.64 4.169 48.154 0.65 0
10-11-2012 06:20 83.4 % 8.654 4.13 19.048 0.814 0
10-11-2012 06:10 83.8 % 8.588 4.066 4.565 0.488 0
10-11-2012 06:00 84.1 % 8.509 4.054 69.983 0.376 0
10-11-2012 05:50 84.1 % 8.439 4.22 36.054 0.769 0
10-11-2012 05:40 84.1 % 8.476 4.346 62.277 0.832 0
10-11-2012 05:30 84.5 % 8.426 4.346 23.342 0.907 0
10-11-2012 05:20 84.7 % 8.373 4.283 30.382 0.373 0
10-11-2012 05:10 85.1 % 8.29 4.116 50.652 0.946 0
10-11-2012 05:00 85.4 % 8.274 4.09 52.149 0.749 0
10-11-2012 04:50 85.5 % 8.197 4.167 55.925 1.354 0
10-11-2012 04:40 85.2 % 8.182 3.232 25.689 0.66 0
10-11-2012 04:30 84.8 % 8.328 3.424 46.045 1.031 0
10-11-2012 04:20 84.8 % 8.402 3.155 26.886 1.469 0
10-11-2012 04:10 84.7 % 8.432 3.63 3.295 0.932 0
10-11-2012 04:00 84.4 % 8.499 3.232 43.194 1.055 0
10-11-2012 03:50 84.4 % 8.585 3.642 14.257 1.273 0
10-11-2012 03:40 84.2 % 8.584 3.475 19.208 0.554 0
10-11-2012 03:30 84.3 % 8.78 3.578 29.171 0.667 0
10-11-2012 03:20 84.6 % 8.71 3.604 320.329 0.364 0

I dati sono presentati in modo automatico a scopo informativo. In seguito a verifica i dati possono subire modifiche o essere invalidati e non riportati negli archivi definitivi.